Time;durP1;ratioP1;P1;durP2;ratioP2;P2;SDS_P1;SDS_P2;PMS_P1;PMS_P2;Temp;Humidity;BMP_temperature;BMP_pressure;BME280_temperature;BME280_humidity;BME280_pressure;Samples;Min_cycle;Max_cycle;Signal;HPM_P1;HPM_P2
2022/05/15 00:00:54;;;;;;;8.18;3.17;;;21.40;51.70;;;;;;5033530;28;20050;-78
2022/05/15 00:03:24;;;;;;;6.75;2.50;;;21.30;51.70;;;;;;5034262;28;20056;-75
2022/05/15 00:05:53;;;;;;;11.95;3.33;;;21.30;51.70;;;;;;5036069;28;20071;-78
2022/05/15 00:08:19;;;;;;;9.60;3.30;;;21.30;51.70;;;;;;5030535;28;20041;-75
2022/05/15 00:10:45;;;;;;;9.43;3.20;;;21.30;51.70;;;;;;5033382;28;20056;-74
2022/05/15 00:13:11;;;;;;;7.60;2.90;;;21.30;51.70;;;;;;5035915;28;20047;-74
2022/05/15 00:15:37;;;;;;;7.90;2.67;;;21.30;51.70;;;;;;5036785;28;20033;-74
2022/05/15 00:18:03;;;;;;;7.38;2.78;;;21.30;51.70;;;;;;5033813;28;20083;-74
2022/05/15 00:20:29;;;;;;;9.30;2.97;;;21.30;51.70;;;;;;5030771;28;20084;-73
2022/05/15 00:22:55;;;;;;;7.60;3.08;;;21.20;51.70;;;;;;5031694;28;20069;-74
2022/05/15 00:25:21;;;;;;;7.38;2.67;;;21.30;51.70;;;;;;5034625;28;20664;-73
2022/05/15 00:27:47;;;;;;;10.65;3.25;;;21.30;51.70;;;;;;5028723;28;20604;-74
2022/05/15 00:30:15;;;;;;;8.50;2.65;;;21.20;51.70;;;;;;5032334;28;20508;-74
2022/05/15 00:32:40;;;;;;;8.73;2.95;;;21.20;51.80;;;;;;5034078;28;20052;-73
2022/05/15 00:35:06;;;;;;;10.00;2.67;;;21.20;51.80;;;;;;5033302;28;20416;-74
2022/05/15 00:37:32;;;;;;;7.22;2.80;;;21.20;51.70;;;;;;5033880;28;20095;-73
2022/05/15 00:39:58;;;;;;;7.90;2.70;;;21.20;51.70;;;;;;5031201;28;20045;-74
2022/05/15 00:42:25;;;;;;;7.38;2.78;;;21.20;51.70;;;;;;5033410;28;20072;-74
2022/05/15 00:44:50;;;;;;;8.60;2.50;;;21.20;51.70;;;;;;5031589;28;20045;-76
2022/05/15 00:47:16;;;;;;;7.30;2.90;;;21.10;51.70;;;;;;5032107;28;20111;-74
2022/05/15 00:49:42;;;;;;;6.97;2.75;;;21.10;51.70;;;;;;5035297;28;20043;-76
2022/05/15 00:52:12;;;;;;;6.10;2.50;;;21.10;51.60;;;;;;5031963;28;20038;-78
2022/05/15 00:54:44;;;;;;;5.10;2.60;;;21.10;51.60;;;;;;5032195;28;20080;-77
2022/05/15 00:57:09;;;;;;;7.47;2.67;;;21.10;51.60;;;;;;5031113;28;20472;-75
2022/05/15 00:59:45;;;;;;;9.57;2.83;;;21.10;51.60;;;;;;5030813;28;20065;-75
2022/05/15 01:02:11;;;;;;;8.80;3.05;;;21.10;51.70;;;;;;5032136;28;20562;-75
2022/05/15 01:04:37;;;;;;;6.70;2.70;;;21.10;51.70;;;;;;5034118;28;20037;-76
2022/05/15 01:07:03;;;;;;;4.70;2.50;;;21.10;51.70;;;;;;5032204;28;20622;-75
2022/05/15 01:09:29;;;;;;;9.35;2.53;;;21.00;51.60;;;;;;5030941;28;20041;-78
2022/05/15 01:11:56;;;;;;;6.35;2.90;;;21.00;51.60;;;;;;5036593;28;20052;-77
2022/05/15 01:14:22;;;;;;;7.95;2.72;;;21.00;51.60;;;;;;5028093;28;20515;-75
2022/05/15 01:16:47;;;;;;;10.35;2.80;;;21.00;51.60;;;;;;5013866;28;20091;-73
2022/05/15 01:19:14;;;;;;;7.03;2.70;;;21.00;51.60;;;;;;5038540;28;20052;-75
2022/05/15 01:21:52;;;;;;;5.75;2.72;;;21.00;51.60;;;;;;5036063;28;20639;-75
2022/05/15 01:24:17;;;;;;;6.38;2.50;;;21.00;51.50;;;;;;5041817;28;20501;-76
2022/05/15 01:26:44;;;;;;;8.27;3.00;;;21.00;51.60;;;;;;5034723;28;20052;-76
2022/05/15 01:29:10;;;;;;;5.90;2.42;;;21.00;51.60;;;;;;5039146;28;20045;-77
2022/05/15 01:31:37;;;;;;;6.95;2.38;;;20.90;51.50;;;;;;5032867;28;20104;-77
2022/05/15 01:34:05;;;;;;;5.68;2.28;;;21.00;51.60;;;;;;5037216;28;20557;-74
2022/05/15 01:36:30;;;;;;;7.72;2.60;;;20.90;51.50;;;;;;5035173;28;20056;-79
2022/05/15 01:38:56;;;;;;;6.30;2.45;;;20.90;51.50;;;;;;5039847;28;20424;-75
2022/05/15 01:41:24;;;;;;;8.25;2.58;;;20.90;51.60;;;;;;5036848;28;20047;-73
2022/05/15 01:43:53;;;;;;;7.90;2.58;;;20.90;51.50;;;;;;5036619;28;20033;-74
2022/05/15 01:46:23;;;;;;;6.35;2.72;;;20.90;51.50;;;;;;5036259;28;20033;-74
2022/05/15 01:48:50;;;;;;;5.95;2.70;;;20.90;51.50;;;;;;5018900;28;20040;-73
2022/05/15 01:51:16;;;;;;;7.63;2.50;;;20.90;51.50;;;;;;5038473;28;20487;-73
2022/05/15 01:53:42;;;;;;;9.93;2.42;;;20.90;51.50;;;;;;5037257;28;20041;-73
2022/05/15 01:56:07;;;;;;;6.38;2.53;;;20.80;51.50;;;;;;5037630;28;20068;-74
2022/05/15 01:58:33;;;;;;;5.97;2.40;;;20.90;51.50;;;;;;5030126;28;20104;-75
2022/05/15 02:00:59;;;;;;;5.72;2.30;;;20.80;51.40;;;;;;5034267;28;20045;-74
2022/05/15 02:03:24;;;;;;;6.57;2.40;;;20.80;51.40;;;;;;5035623;28;20056;-73
2022/05/15 02:05:50;;;;;;;7.78;2.60;;;20.80;51.50;;;;;;5034752;28;20136;-73
2022/05/15 02:08:18;;;;;;;5.78;2.35;;;20.80;51.40;;;;;;5035099;28;20128;-75
2022/05/15 02:10:45;;;;;;;6.95;2.15;;;20.80;51.40;;;;;;5033183;28;20042;-76
2022/05/15 02:13:11;;;;;;;7.60;2.63;;;20.80;51.50;;;;;;5039888;28;20671;-74
2022/05/15 02:15:37;;;;;;;5.18;2.30;;;20.80;51.40;;;;;;5031107;28;20060;-75
2022/05/15 02:18:04;;;;;;;5.15;2.22;;;20.80;51.50;;;;;;5033902;28;20037;-77
2022/05/15 02:20:30;;;;;;;6.57;2.60;;;20.80;51.40;;;;;;5019229;28;20042;-76
2022/05/15 02:22:56;;;;;;;5.93;2.53;;;20.80;51.40;;;;;;5039429;28;20051;-77
2022/05/15 02:25:21;;;;;;;6.60;2.65;;;20.80;51.40;;;;;;5033276;28;20120;-78
2022/05/15 02:27:47;;;;;;;4.80;2.08;;;20.80;51.40;;;;;;5035250;28;20040;-78
2022/05/15 02:30:14;;;;;;;5.57;2.05;;;20.70;51.30;;;;;;5034343;28;20037;-77
2022/05/15 02:32:40;;;;;;;6.32;2.40;;;20.70;51.40;;;;;;5034285;28;20076;-77
2022/05/15 02:35:07;;;;;;;7.13;2.28;;;20.70;51.40;;;;;;5038472;28;20133;-78
2022/05/15 02:37:32;;;;;;;7.65;2.40;;;20.70;51.40;;;;;;5036728;28;20381;-74
2022/05/15 02:39:58;;;;;;;4.85;2.20;;;20.70;51.40;;;;;;5033926;28;20095;-79
2022/05/15 02:42:24;;;;;;;8.30;2.38;;;20.70;51.30;;;;;;5037068;28;20041;-79
2022/05/15 02:44:50;;;;;;;4.65;2.20;;;20.70;51.30;;;;;;5037420;28;20032;-80
2022/05/15 02:47:16;;;;;;;5.05;2.17;;;20.70;51.30;;;;;;5035508;28;20052;-80
2022/05/15 02:52:25;;;;;;;6.32;2.25;;;20.60;51.30;;;;;;5021905;28;20061;-75
2022/05/15 02:54:51;;;;;;;7.57;2.50;;;20.70;51.40;;;;;;5039708;28;20049;-79
2022/05/15 02:57:16;;;;;;;5.18;2.40;;;20.60;51.30;;;;;;5032455;28;20056;-76
2022/05/15 02:59:42;;;;;;;6.47;2.42;;;20.60;51.30;;;;;;5037834;28;20046;-78
2022/05/15 03:02:08;;;;;;;7.13;2.47;;;20.60;51.30;;;;;;5032982;28;20041;-78
2022/05/15 03:04:36;;;;;;;4.05;1.85;;;20.60;51.30;;;;;;5032251;28;20041;-78
2022/05/15 03:07:04;;;;;;;5.78;2.20;;;20.60;51.30;;;;;;5038947;28;20622;-77
2022/05/15 03:09:29;;;;;;;5.03;2.05;;;20.60;51.30;;;;;;5036979;28;20098;-79
2022/05/15 03:11:55;;;;;;;7.05;2.40;;;20.60;51.30;;;;;;5016477;28;20041;-79
2022/05/15 03:14:20;;;;;;;5.60;2.20;;;20.60;51.30;;;;;;5030704;28;20132;-77
2022/05/15 03:16:46;;;;;;;5.95;2.20;;;20.60;51.20;;;;;;5033835;28;20045;-78
2022/05/15 03:19:13;;;;;;;6.10;2.15;;;20.60;51.20;;;;;;5030804;28;20168;-79
2022/05/15 03:21:38;;;;;;;5.10;2.40;;;20.60;51.20;;;;;;5033142;28;20136;-80
2022/05/15 03:24:10;;;;;;;5.05;2.20;;;20.60;51.20;;;;;;5035114;28;20032;-79
2022/05/15 03:26:44;;;;;;;3.55;2.10;;;20.60;51.20;;;;;;5037242;28;20548;-78
2022/05/15 03:29:12;;;;;;;5.03;2.13;;;20.60;51.20;;;;;;5033792;28;20557;-80
2022/05/15 03:31:39;;;;;;;6.53;2.33;;;20.60;51.20;;;;;;5033170;28;20379;-79
2022/05/15 03:34:09;;;;;;;4.70;1.83;;;20.50;51.20;;;;;;5034549;28;20041;-77
2022/05/15 03:36:36;;;;;;;4.63;2.00;;;20.50;51.10;;;;;;5033774;28;20051;-76
2022/05/15 03:39:03;;;;;;;4.00;2.08;;;20.50;51.10;;;;;;5033956;28;20501;-75
2022/05/15 03:41:28;;;;;;;4.18;1.90;;;20.50;51.10;;;;;;5027711;28;20052;-77
2022/05/15 03:43:54;;;;;;;3.80;2.15;;;20.50;51.20;;;;;;5037260;28;20049;-79
2022/05/15 03:46:20;;;;;;;6.10;2.47;;;20.50;51.10;;;;;;5032213;28;20048;-80
2022/05/15 03:48:45;;;;;;;5.22;1.95;;;20.50;51.10;;;;;;5031473;28;20032;-79
2022/05/15 03:51:11;;;;;;;7.07;1.98;;;20.50;51.10;;;;;;5034160;28;20042;-78
2022/05/15 03:53:37;;;;;;;5.20;1.98;;;20.50;51.10;;;;;;5033827;28;20029;-78
2022/05/15 03:56:04;;;;;;;4.15;1.80;;;20.50;51.10;;;;;;5031098;28;20431;-78
2022/05/15 03:58:34;;;;;;;4.30;1.90;;;20.40;51.00;;;;;;5034390;28;20139;-80
2022/05/15 04:01:00;;;;;;;5.50;2.20;;;20.50;51.10;;;;;;5032875;28;20052;-76
2022/05/15 04:03:26;;;;;;;4.15;2.00;;;20.50;51.10;;;;;;5028728;28;20125;-77
2022/05/15 04:05:51;;;;;;;4.28;1.85;;;20.40;51.00;;;;;;5016388;28;20436;-79
2022/05/15 04:08:17;;;;;;;5.20;2.17;;;20.40;51.00;;;;;;5032476;28;20072;-80
2022/05/15 04:10:43;;;;;;;7.47;2.20;;;20.40;51.00;;;;;;5033099;28;20072;-78
2022/05/15 04:13:09;;;;;;;3.47;1.80;;;20.40;51.00;;;;;;5015440;28;20482;-79
2022/05/15 04:15:34;;;;;;;3.95;1.73;;;20.40;51.00;;;;;;5029623;28;20128;-76
2022/05/15 04:18:00;;;;;;;3.90;1.58;;;20.40;51.00;;;;;;5034950;28;20103;-75
2022/05/15 04:20:28;;;;;;;3.72;1.88;;;20.40;51.00;;;;;;5032124;28;20049;-76
2022/05/15 04:22:54;;;;;;;4.55;2.05;;;20.40;51.00;;;;;;5033515;28;20046;-77
2022/05/15 04:25:20;;;;;;;3.78;2.00;;;20.40;51.00;;;;;;5031086;28;20136;-73
2022/05/15 04:27:47;;;;;;;5.53;1.77;;;20.40;51.00;;;;;;5032229;28;20056;-78
2022/05/15 04:30:16;;;;;;;4.40;1.80;;;20.40;51.00;;;;;;5031477;28;20030;-74
2022/05/15 04:32:42;;;;;;;4.47;1.80;;;20.40;51.00;;;;;;5031144;28;20039;-76
2022/05/15 04:35:09;;;;;;;5.40;1.63;;;20.40;51.00;;;;;;5035055;28;20037;-78
2022/05/15 04:37:35;;;;;;;3.17;1.73;;;20.40;50.90;;;;;;5034011;28;20045;-79
2022/05/15 04:40:01;;;;;;;5.70;2.13;;;20.40;50.90;;;;;;5032903;28;20412;-77
2022/05/15 04:42:26;;;;;;;3.22;1.73;;;20.40;50.90;;;;;;5031267;28;20045;-79
2022/05/15 04:44:52;;;;;;;3.47;1.63;;;20.40;50.90;;;;;;5029172;28;20036;-78
2022/05/15 04:47:17;;;;;;;3.65;1.60;;;20.40;50.90;;;;;;5017971;28;20049;-74
2022/05/15 04:49:43;;;;;;;4.57;1.92;;;20.40;50.90;;;;;;5031076;28;20033;-74
2022/05/15 04:52:10;;;;;;;5.90;2.03;;;20.40;50.90;;;;;;5033518;28;20038;-73
2022/05/15 04:54:36;;;;;;;3.10;1.63;;;20.40;50.90;;;;;;5024170;28;20104;-73
2022/05/15 04:57:02;;;;;;;6.00;2.00;;;20.40;50.90;;;;;;5036038;28;20567;-74
2022/05/15 04:59:28;;;;;;;3.30;1.60;;;20.40;51.00;;;;;;5033299;28;20037;-74
2022/05/15 05:01:53;;;;;;;3.58;1.60;;;20.40;51.00;;;;;;5033376;28;20583;-73
2022/05/15 05:04:22;;;;;;;5.60;2.13;;;20.40;51.00;;;;;;5029167;28;20425;-73
2022/05/15 05:06:47;;;;;;;4.15;2.00;;;20.40;51.00;;;;;;5029739;28;20117;-72
2022/05/15 05:09:13;;;;;;;4.05;1.70;;;20.40;51.00;;;;;;5010869;28;20575;-71
2022/05/15 05:11:39;;;;;;;7.22;1.70;;;20.40;51.00;;;;;;5036636;28;20045;-70
2022/05/15 05:14:05;;;;;;;4.53;1.90;;;20.40;51.00;;;;;;5032751;28;20044;-73
2022/05/15 05:16:33;;;;;;;4.68;2.10;;;20.40;51.10;;;;;;5032514;28;20026;-73
2022/05/15 05:19:00;;;;;;;5.07;2.10;;;20.40;51.20;;;;;;5030876;28;20045;-78
2022/05/15 05:21:26;;;;;;;6.47;2.17;;;20.40;51.30;;;;;;5030844;28;20078;-76
2022/05/15 05:23:51;;;;;;;10.50;2.55;;;20.40;51.40;;;;;;5034535;28;20063;-76
2022/05/15 05:26:17;;;;;;;6.05;1.90;;;20.40;51.40;;;;;;5032798;28;20057;-79
2022/05/15 05:28:43;;;;;;;5.30;2.10;;;20.40;51.40;;;;;;5033308;28;20060;-80
2022/05/15 05:31:08;;;;;;;8.27;2.03;;;20.40;51.50;;;;;;5028460;28;20037;-74
2022/05/15 05:33:34;;;;;;;5.05;2.08;;;20.40;51.50;;;;;;5031326;28;20103;-77
2022/05/15 05:36:00;;;;;;;5.85;2.13;;;20.40;51.50;;;;;;5034556;28;20404;-76
2022/05/15 05:38:26;;;;;;;5.22;1.90;;;20.40;51.60;;;;;;5030383;28;20176;-76
2022/05/15 05:40:51;;;;;;;3.58;2.08;;;20.50;51.70;;;;;;5028150;28;20128;-78
2022/05/15 05:43:17;;;;;;;4.90;1.65;;;20.50;51.70;;;;;;5037860;28;20053;-77
2022/05/15 05:45:43;;;;;;;3.30;1.58;;;20.50;52.50;;;;;;5032869;28;20045;-81
2022/05/15 05:48:08;;;;;;;4.65;2.05;;;20.50;51.80;;;;;;5028563;28;20503;-79
2022/05/15 05:50:36;;;;;;;6.95;2.20;;;20.50;51.90;;;;;;5025221;28;20045;-79
2022/05/15 05:53:01;;;;;;;5.70;1.77;;;20.60;52.10;;;;;;5033955;28;20497;-78
2022/05/15 05:55:27;;;;;;;6.80;2.30;;;20.60;52.10;;;;;;5027463;28;20060;-77
2022/05/15 05:57:53;;;;;;;4.05;1.85;;;20.60;52.20;;;;;;5032650;28;20107;-77
2022/05/15 06:00:30;;;;;;;5.78;2.22;;;20.60;52.30;;;;;;5030059;28;20610;-80
2022/05/15 06:04:39;;;;;;;5.63;2.00;;;20.70;52.50;;;;;;5036354;28;20075;-74
2022/05/15 06:05:43;;;;;;;5.78;1.90;;;20.70;52.50;;;;;;5035732;28;20042;-77
2022/05/15 06:08:09;;;;;;;5.88;2.20;;;20.80;52.60;;;;;;5038131;28;20037;-76
2022/05/15 06:10:35;;;;;;;5.72;2.08;;;20.80;52.60;;;;;;5031923;28;20033;-75
2022/05/15 06:13:01;;;;;;;5.47;2.00;;;20.80;52.70;;;;;;5037881;28;20037;-77
2022/05/15 06:15:27;;;;;;;6.35;1.95;;;20.90;52.80;;;;;;5040450;28;20052;-77
2022/05/15 06:17:52;;;;;;;5.78;1.95;;;20.90;52.80;;;;;;5039961;28;20035;-75
2022/05/15 06:20:18;;;;;;;6.90;2.13;;;20.90;52.80;;;;;;5018258;28;20037;-74
2022/05/15 06:22:44;;;;;;;7.55;1.92;;;21.00;52.90;;;;;;5038143;28;20056;-77
2022/05/15 06:25:10;;;;;;;5.03;1.70;;;21.00;52.90;;;;;;5038025;28;20056;-75
2022/05/15 06:27:39;;;;;;;6.55;1.80;;;21.00;53.00;;;;;;5036493;28;20028;-78
2022/05/15 06:30:05;;;;;;;;;;;21.10;52.90;;;;;;5032679;28;20049;-75
2022/05/15 06:32:30;;;;;;;5.45;2.00;;;21.10;53.10;;;;;;5037671;28;19932;-76
2022/05/15 06:34:56;;;;;;;5.97;2.10;;;21.10;52.80;;;;;;5038660;28;20421;-79
2022/05/15 06:37:22;;;;;;;4.57;1.70;;;21.20;53.00;;;;;;5031734;28;20041;-77
2022/05/15 06:39:51;;;;;;;4.65;1.88;;;21.20;53.10;;;;;;5030819;28;20053;-75
2022/05/15 06:42:16;;;;;;;4.88;1.83;;;21.20;53.00;;;;;;5039191;28;20057;-75
2022/05/15 06:44:42;;;;;;;5.25;1.90;;;21.30;53.00;;;;;;5038321;28;20497;-76
2022/05/15 06:47:08;;;;;;;4.95;2.03;;;21.30;53.00;;;;;;5013497;28;20045;-71
2022/05/15 06:49:34;;;;;;;5.55;2.30;;;21.40;53.10;;;;;;5039309;28;20048;-75
2022/05/15 06:51:59;;;;;;;5.75;2.08;;;21.40;53.10;;;;;;5036030;28;20041;-73
2022/05/15 06:54:25;;;;;;;6.68;2.10;;;21.50;53.20;;;;;;5021849;28;20055;-76
2022/05/15 06:59:35;;;;;;;5.53;1.98;;;21.50;53.00;;;;;;5030760;28;20484;-74
2022/05/15 07:02:01;;;;;;;8.75;1.90;;;21.60;53.10;;;;;;5035460;28;20053;-73
2022/05/15 07:04:26;;;;;;;8.05;1.83;;;21.60;52.90;;;;;;5038210;28;20868;-74
2022/05/15 07:06:52;;;;;;;6.75;1.90;;;21.60;52.80;;;;;;5044905;28;20666;-76
2022/05/15 07:09:18;;;;;;;7.68;2.20;;;21.70;52.70;;;;;;5039410;28;20033;-75
2022/05/15 07:11:43;;;;;;;5.85;2.00;;;21.70;52.60;;;;;;5035005;28;20037;-79
2022/05/15 07:14:09;;;;;;;7.95;2.03;;;21.70;52.50;;;;;;5041790;28;20103;-75
2022/05/15 07:16:35;;;;;;;6.72;2.08;;;21.70;52.50;;;;;;5036797;28;21032;-79
2022/05/15 07:19:03;;;;;;;5.68;2.10;;;21.80;52.50;;;;;;5041199;28;20052;-78
2022/05/15 07:21:28;;;;;;;8.98;2.08;;;21.80;52.50;;;;;;5038344;28;20416;-74
2022/05/15 07:23:54;;;;;;;8.27;2.33;;;21.80;52.60;;;;;;5042446;28;20052;-76
2022/05/15 07:26:19;;;;;;;7.25;2.30;;;21.80;52.70;;;;;;5039687;28;20067;-74
2022/05/15 07:28:50;;;;;;;10.45;2.60;;;21.80;52.80;;;;;;5039044;28;20627;-78
2022/05/15 07:31:18;;;;;;;7.35;2.67;;;21.80;52.90;;;;;;5037182;28;20106;-73
2022/05/15 07:33:44;;;;;;;;;;;21.90;53.00;;;;;;5031203;28;20053;-75
2022/05/15 07:36:10;;;;;;;8.65;2.00;;;21.90;52.90;;;;;;5040109;28;20336;-76
2022/05/15 07:38:35;;;;;;;6.72;2.20;;;21.90;52.90;;;;;;5036049;28;20029;-75
2022/05/15 07:41:01;;;;;;;8.27;2.40;;;21.90;52.80;;;;;;5039733;28;20049;-75
2022/05/15 07:43:26;;;;;;;7.32;2.03;;;21.90;52.80;;;;;;5031889;28;20047;-78
2022/05/15 07:45:52;;;;;;;7.40;2.15;;;21.90;52.90;;;;;;5040777;28;20405;-78
2022/05/15 07:48:18;;;;;;;8.82;2.40;;;22.00;52.80;;;;;;5034706;28;20083;-76
2022/05/15 07:50:44;;;;;;;11.35;2.30;;;22.00;52.80;;;;;;5032237;28;20033;-75
2022/05/15 07:53:09;;;;;;;5.50;2.05;;;22.00;52.90;;;;;;5035549;28;20046;-74
2022/05/15 07:55:35;;;;;;;8.63;2.65;;;22.00;52.80;;;;;;5038773;28;20033;-76
2022/05/15 07:58:01;;;;;;;9.77;2.58;;;22.00;52.70;;;;;;5044578;28;20067;-73
2022/05/15 08:00:26;;;;;;;7.10;2.25;;;22.00;52.70;;;;;;5032836;28;20145;-71
2022/05/15 08:03:02;;;;;;;6.18;2.22;;;22.00;52.70;;;;;;5037191;28;20049;-71
2022/05/15 08:08:12;;;;;;;6.30;2.28;;;22.10;52.50;;;;;;5040411;28;20033;-74
2022/05/15 08:10:40;;;;;;;8.10;2.53;;;22.10;52.60;;;;;;5031400;28;20458;-74
2022/05/15 08:13:10;;;;;;;7.22;2.33;;;22.10;52.60;;;;;;5036302;28;20514;-73
2022/05/15 08:15:36;;;;;;;7.82;2.95;;;22.10;52.70;;;;;;5038334;28;20342;-73
2022/05/15 08:23:40;;;;;;;3.83;2.03;;;22.20;52.60;;;;;;5040518;28;20053;-71
2022/05/15 08:26:07;;;;;;;8.45;2.70;;;22.20;52.60;;;;;;5035142;28;20045;-73
2022/05/15 08:28:34;;;;;;;5.00;2.10;;;22.20;52.60;;;;;;5039806;28;20489;-77
2022/05/15 08:31:00;;;;;;;5.28;1.98;;;22.20;52.50;;;;;;5038916;28;20041;-74
2022/05/15 08:33:26;;;;;;;8.77;2.60;;;22.20;52.60;;;;;;5037477;28;20072;-73
2022/05/15 08:35:52;;;;;;;9.32;2.53;;;22.30;52.50;;;;;;5036531;28;20122;-74
2022/05/15 08:38:18;;;;;;;7.45;2.30;;;22.30;52.40;;;;;;5040574;28;20041;-76
2022/05/15 08:40:50;;;;;;;7.85;2.20;;;22.30;52.30;;;;;;5039868;28;20047;-73
2022/05/15 08:43:20;;;;;;;10.25;2.55;;;22.30;52.10;;;;;;5034908;28;20071;-73
2022/05/15 08:46:06;;;;;;;6.47;2.20;;;22.30;52.00;;;;;;5037032;28;20045;-73
2022/05/15 08:48:37;;;;;;;7.78;2.33;;;22.30;52.70;;;;;;5016566;28;20131;-73
2022/05/15 08:51:04;;;;;;;6.30;2.20;;;22.30;51.90;;;;;;5035713;28;20238;-73
2022/05/15 08:53:35;;;;;;;6.93;2.53;;;22.30;51.90;;;;;;5028767;28;20041;-77
2022/05/15 08:56:06;;;;;;;6.65;2.13;;;22.30;51.70;;;;;;5037894;28;20059;-78
2022/05/15 08:59:06;;;;;;;11.35;2.53;;;22.30;51.70;;;;;;5040262;28;20064;-71
2022/05/15 09:01:33;;;;;;;9.73;2.50;;;22.30;51.60;;;;;;5011355;28;20134;-74
2022/05/15 09:03:58;;;;;;;6.97;2.30;;;22.30;51.50;;;;;;5036343;28;20075;-74
2022/05/15 09:06:36;;;;;;;6.88;2.33;;;22.30;51.50;;;;;;5039486;28;20052;-77
2022/05/15 09:09:20;;;;;;;6.95;2.35;;;22.30;51.40;;;;;;5039809;28;20080;-73
2022/05/15 09:12:17;;;;;;;8.57;2.60;;;22.40;51.30;;;;;;5029602;28;20049;-70
2022/05/15 09:15:06;;;;;;;7.97;2.20;;;22.30;51.20;;;;;;5033158;28;20064;-72
2022/05/15 09:17:47;;;;;;;6.55;2.17;;;22.40;51.30;;;;;;5039317;28;20211;-78
2022/05/15 09:20:27;;;;;;;7.38;2.50;;;22.40;51.20;;;;;;5036927;28;20484;-76
2022/05/15 09:23:24;;;;;;;11.02;2.42;;;22.40;51.20;;;;;;5039503;28;20040;-78
2022/05/15 09:25:54;;;;;;;7.87;2.43;;;22.40;51.10;;;;;;5039244;28;20041;-76
2022/05/15 09:28:20;;;;;;;10.80;2.60;;;22.40;51.00;;;;;;5035927;28;20076;-73
2022/05/15 09:30:49;;;;;;;11.95;2.60;;;22.40;51.00;;;;;;5033142;28;20114;-76
2022/05/15 09:33:52;;;;;;;5.97;2.30;;;22.50;50.90;;;;;;5032281;28;20037;-75
2022/05/15 09:36:18;;;;;;;7.53;2.45;;;22.40;50.80;;;;;;5030686;28;20102;-76
2022/05/15 09:38:44;;;;;;;6.05;2.00;;;22.40;50.90;;;;;;5035385;28;20045;-79
2022/05/15 09:44:30;;;;;;;7.97;2.60;;;22.40;50.70;;;;;;5034781;28;20104;-73
2022/05/15 09:47:03;;;;;;;7.88;2.67;;;22.40;50.80;;;;;;5034892;28;20451;-76
2022/05/15 09:49:33;;;;;;;11.90;2.78;;;22.40;50.80;;;;;;5031892;28;20049;-73
2022/05/15 09:52:06;;;;;;;7.05;2.55;;;22.40;50.80;;;;;;5036171;28;20045;-73
2022/05/15 09:54:45;;;;;;;7.50;2.50;;;22.50;50.80;;;;;;5030085;28;20132;-76
2022/05/15 09:57:22;;;;;;;12.07;2.88;;;22.50;50.80;;;;;;5029373;28;20072;-79
2022/05/15 10:00:00;;;;;;;9.75;2.45;;;22.50;50.70;;;;;;5027677;28;20045;-76
2022/05/15 10:02:42;;;;;;;7.38;2.50;;;22.50;50.70;;;;;;5016805;28;20045;-73
2022/05/15 10:05:14;;;;;;;8.80;2.47;;;22.50;50.60;;;;;;5039291;28;20058;-72
2022/05/15 10:07:44;;;;;;;11.07;2.53;;;22.50;50.60;;;;;;5034694;28;20050;-72
2022/05/15 10:10:52;;;;;;;10.35;2.80;;;22.50;50.60;;;;;;5013153;28;20117;-73
2022/05/15 10:13:32;;;;;;;7.00;2.33;;;22.50;50.50;;;;;;5031173;28;20115;-75
2022/05/15 10:16:03;;;;;;;8.57;2.60;;;22.50;50.60;;;;;;5030371;28;20637;-77
2022/05/15 10:18:34;;;;;;;11.90;2.70;;;22.50;50.40;;;;;;5045341;28;20511;-77
2022/05/15 10:21:01;;;;;;;16.17;2.50;;;22.50;50.50;;;;;;5030732;28;20045;-74
2022/05/15 10:23:49;;;;;;;7.85;2.42;;;22.50;50.40;;;;;;5028902;28;20055;-76
2022/05/15 10:26:29;;;;;;;11.00;2.22;;;22.60;50.40;;;;;;5014991;28;20045;-75
2022/05/15 10:29:04;;;;;;;8.50;2.80;;;22.50;50.40;;;;;;5028342;28;20055;-75
2022/05/15 10:31:53;;;;;;;8.13;2.45;;;22.50;50.40;;;;;;5026124;28;20099;-72
2022/05/15 10:34:25;;;;;;;10.73;2.90;;;22.50;50.30;;;;;;5034243;28;20053;-72
2022/05/15 10:37:16;;;;;;;11.50;2.58;;;22.60;50.30;;;;;;5032232;28;20037;-72
2022/05/15 10:40:19;;;;;;;6.85;2.47;;;22.50;50.10;;;;;;5049443;28;20069;-72
2022/05/15 10:42:58;;;;;;;11.48;3.10;;;22.50;50.30;;;;;;5035772;28;20124;-76
2022/05/15 10:45:45;;;;;;;12.35;2.53;;;22.50;50.40;;;;;;5026750;28;20049;-76
2022/05/15 10:48:22;;;;;;;7.07;2.55;;;22.50;50.00;;;;;;5012825;28;20113;-74
2022/05/15 10:51:26;;;;;;;15.27;2.95;;;22.50;49.90;;;;;;5028270;28;20046;-74
2022/05/15 10:57:29;;;;;;;10.30;2.70;;;22.50;49.70;;;;;;5027048;28;20057;-74
2022/05/15 11:00:11;;;;;;;10.93;2.85;;;22.50;49.60;;;;;;5036064;28;20139;-74
2022/05/15 11:02:58;;;;;;;12.70;2.72;;;22.50;49.50;;;;;;5036002;28;20044;-74
2022/05/15 11:05:40;;;;;;;11.30;2.95;;;22.50;49.40;;;;;;5037752;28;20063;-73
2022/05/15 11:08:24;;;;;;;8.45;3.15;;;22.50;49.20;;;;;;5032500;28;20044;-74
2022/05/15 11:11:04;;;;;;;10.40;2.80;;;22.50;49.10;;;;;;5035664;28;20044;-73
2022/05/15 11:13:54;;;;;;;12.13;3.08;;;22.50;49.20;;;;;;5040297;28;20057;-73
2022/05/15 11:16:30;;;;;;;11.05;2.85;;;22.50;49.20;;;;;;5038099;28;20049;-74
2022/05/15 11:19:29;;;;;;;11.23;3.03;;;22.50;49.00;;;;;;5038329;28;20110;-72
2022/05/15 11:22:25;;;;;;;12.05;3.22;;;22.50;48.30;;;;;;5021349;28;20041;-71
2022/05/15 11:24:59;;;;;;;10.30;2.88;;;22.50;48.00;;;;;;5029014;28;20060;-73
2022/05/15 11:27:57;;;;;;;15.55;3.03;;;22.50;48.00;;;;;;5027645;28;20085;-72
2022/05/15 11:30:36;;;;;;;13.60;3.55;;;22.50;47.50;;;;;;5030134;28;20053;-72
2022/05/15 11:33:09;;;;;;;13.40;2.70;;;22.50;47.30;;;;;;5028433;28;20061;-72
2022/05/15 11:35:40;;;;;;;11.63;3.05;;;22.60;47.10;;;;;;5030564;28;20036;-74
2022/05/15 11:38:20;;;;;;;12.18;3.03;;;22.60;47.10;;;;;;5026162;28;20043;-73
2022/05/15 11:40:50;;;;;;;9.70;2.83;;;22.60;47.00;;;;;;5031732;28;20053;-76
2022/05/15 11:43:33;;;;;;;8.93;2.72;;;22.60;46.90;;;;;;5027697;28;20041;-73
2022/05/15 11:46:06;;;;;;;10.38;3.13;;;22.70;46.70;;;;;;5024759;28;20493;-74
2022/05/15 11:48:39;;;;;;;12.52;3.30;;;22.70;46.50;;;;;;5038825;28;20032;-77
2022/05/15 11:51:13;;;;;;;9.88;2.90;;;22.70;46.50;;;;;;5024215;28;20038;-78
2022/05/15 11:54:03;;;;;;;13.65;3.10;;;22.70;46.30;;;;;;5011709;28;20056;-75
2022/05/15 11:56:32;;;;;;;11.40;2.72;;;22.80;46.30;;;;;;5009568;28;20452;-79
2022/05/15 11:59:00;;;;;;;16.15;3.42;;;22.80;46.80;;;;;;5024194;28;20622;-74
2022/05/15 12:01:32;;;;;;;11.50;3.63;;;22.80;46.20;;;;;;5037140;28;20041;-78
2022/05/15 12:04:03;;;;;;;11.68;3.20;;;22.80;46.10;;;;;;5008265;28;20052;-73
2022/05/15 12:06:43;;;;;;;12.52;2.97;;;22.80;46.10;;;;;;5029873;28;20037;-73
2022/05/15 12:09:20;;;;;;;11.52;2.85;;;22.80;46.10;;;;;;5008896;28;20504;-77
2022/05/15 12:11:48;;;;;;;9.43;2.60;;;22.90;45.90;;;;;;5012851;28;20878;-73
2022/05/15 12:14:22;;;;;;;13.10;3.50;;;22.80;46.70;;;;;;5022602;28;20498;-75
2022/05/15 12:17:27;;;;;;;14.93;3.20;;;22.80;45.70;;;;;;5028685;28;20084;-73
2022/05/15 12:20:04;;;;;;;7.90;2.72;;;22.90;45.90;;;;;;5018774;28;20038;-76
2022/05/15 12:22:42;;;;;;;12.18;3.05;;;22.90;45.90;;;;;;5034534;28;20285;-75
2022/05/15 12:25:09;;;;;;;;;;;23.00;46.10;;;;;;5032712;28;20041;-80
2022/05/15 12:30:55;;;;;;;10.50;3.05;;;23.00;46.10;;;;;;5007271;28;20396;-77
2022/05/15 12:33:26;;;;;;;14.45;2.97;;;23.00;46.00;;;;;;5035919;28;20045;-77
2022/05/15 12:35:52;;;;;;;10.32;3.30;;;23.00;45.70;;;;;;5034068;28;20040;-76
2022/05/15 12:38:22;;;;;;;12.18;3.05;;;23.10;45.70;;;;;;5032952;28;20191;-74
2022/05/15 12:41:01;;;;;;;13.48;2.92;;;23.00;45.50;;;;;;5042271;28;20049;-74
2022/05/15 12:43:41;;;;;;;7.80;2.70;;;23.10;45.50;;;;;;5039903;28;20065;-77
2022/05/15 12:46:07;;;;;;;11.30;3.00;;;23.10;45.60;;;;;;5031698;28;20049;-77
2022/05/15 12:48:38;;;;;;;10.38;3.03;;;23.10;45.50;;;;;;5039760;28;20544;-79
2022/05/15 12:51:10;;;;;;;9.27;2.78;;;23.10;45.40;;;;;;5038583;28;20041;-75
2022/05/15 12:53:47;;;;;;;9.30;2.78;;;23.10;45.40;;;;;;5040950;28;20041;-75
2022/05/15 12:56:20;;;;;;;10.63;2.88;;;23.10;45.30;;;;;;5031046;28;20604;-74
2022/05/15 12:58:52;;;;;;;8.93;2.60;;;23.10;45.40;;;;;;5038567;28;20633;-73
2022/05/15 13:01:19;;;;;;;8.30;2.28;;;23.10;45.30;;;;;;5034661;28;20574;-77
2022/05/15 13:03:50;;;;;;;8.15;2.40;;;23.10;46.00;;;;;;5040468;28;20060;-74
2022/05/15 13:06:20;;;;;;;10.20;2.75;;;23.10;45.10;;;;;;5036356;28;20128;-74
2022/05/15 13:08:51;;;;;;;14.23;3.05;;;23.20;45.10;;;;;;5033426;28;20049;-75
2022/05/15 13:11:23;;;;;;;10.95;3.10;;;23.20;45.20;;;;;;5029920;28;20524;-77
2022/05/15 13:13:55;;;;;;;6.85;2.72;;;23.20;45.20;;;;;;5009195;28;20481;-79
2022/05/15 13:16:22;;;;;;;11.85;2.90;;;23.20;45.10;;;;;;5040720;28;20079;-78
2022/05/15 13:18:51;;;;;;;9.25;2.80;;;23.10;44.90;;;;;;5043132;28;20044;-76
2022/05/15 13:21:39;;;;;;;9.27;2.88;;;23.20;45.10;;;;;;5041696;28;20036;-74
2022/05/15 13:24:07;;;;;;;8.65;2.70;;;23.10;45.10;;;;;;5044557;28;20048;-74